Nearby METAR Reports

 

MWCR - Owen Roberts, Grand Cayman
Distance from station: NNE 3mi, 4km
Updated: 20/09/2017 22:00
NOT Current
Few Clouds
Few Clouds
 Wind from NE
Wind: NE 10 mph , 17 km/h
Temperature: 86°F , 30°C
Heat Index: 97°F , 36°C
Dew Point: 77°F , 25°C
Humidity: 75%
Barometer: 1013 hPa
Clouds: Few Clouds
Visibility: 6 miles , 10 km
Cloud details: Few Clouds 2400 ft
2017/09/21 03:00 MWCR 210300Z 04009KT 9999 FEW024 30/25 Q1013 NOSIG
MWCB - Gerrard Smith, Cayman Brac
Distance from station: ENE 102mi, 164km
Updated: 20/09/2017 19:00
NOT Current
Few Clouds
Few Clouds
 Wind from NNE
Wind: NNE 7 mph , 11 km/h
Temperature: 86°F , 30°C
Heat Index: 97°F , 36°C
Dew Point: 77°F , 25°C
Humidity: 75%
Barometer: 1012 hPa
Clouds: Few Clouds
Visibility: 6 miles , 10 km
Cloud details: Few Clouds 1600 ft
2017/09/21 00:00 MWCB 210000Z 03006KT 020V140 9999 FEW016CB 30/25 Q1012
 
MUCL - Cayo Largo D Sur, Cuba
Distance from station: N 164mi, 264km
Updated: 21/09/2017 01:05

 Wind from E
Wind: E 8 mph , 13 km/h
Temperature: 88°F , 31°C
Heat Index: 100°F , 38°C
Dew Point: 77°F , 25°C
Humidity: 70%
Barometer: 1013 hPa
2017/09/21 06:05 MUCL 210605Z AUTO 08007KT 31/25 Q1013
MUCF - Cienfuegos(Civ/M, Cuba
Distance from station: NNE 208mi, 335km
Updated: 21/09/2017 00:59

 Wind from SSW
Wind: SSW 21 mph , 33 km/h
Temperature: 75°F , 24°C
Dew Point: 75°F , 24°C
Humidity: 100%
Barometer: 1014 hPa
2017/09/21 05:59 MUCF 210559Z AUTO 20018KT 060V230 24/24 Q1014
 
MKJS - Sangster/Montego Bay, Jamaica
Distance from station: ESE 233mi, 375km
Updated: 21/09/2017 01:00
Few Clouds
Few Clouds
 Wind from SE
Wind: SE 5 mph , 7 km/h
Temperature: 82°F , 28°C
Heat Index: 89°F , 32°C
Dew Point: 75°F , 24°C
Humidity: 79%
Barometer: 1010 hPa
Clouds: Few Clouds
Visibility: 6 miles , 10 km
Cloud details: Few Clouds 2400 ft
2017/09/21 06:00 MKJS 210600Z 14004KT 9999 FEW024 28/24 Q1010
MUSC - Santa Clara, Cuba
Distance from station: NNE 242mi, 389km
Updated: 21/09/2017 00:53
Partly cloudy
Partly cloudy
 Wind from calm
Wind: Calm
Temperature: 73°F , 23°C
Dew Point: 72°F , 22°C
Humidity: 94%
Barometer: 1014 hPa
Clouds: Partly cloudy
Visibility: 6 miles , 9 km
2017/09/21 05:53 MUSC 210553Z 00000KT 9000 NSC 23/22 Q1014
 
MUVR - Varadero, Cuba
Distance from station: N 260mi, 419km
Updated: 21/09/2017 00:51
Few Clouds
Few Clouds
 Wind from SE
Wind: SE 5 mph , 7 km/h
Temperature: 75°F , 24°C
Dew Point: 70°F , 21°C
Humidity: 83%
Barometer: 1014 hPa
Clouds: Few Clouds
Visibility: 4 miles , 7 km
Cloud details: Few Clouds 3000 ft
2017/09/21 05:51 MUVR 210551Z 14004KT 7000 FEW030 24/21 Q1014
MUHA - Havana/Jose Mar, Cuba
Distance from station: NNW 264mi, 425km
Updated: 21/09/2017 00:55
Few Clouds
Few Clouds
 Wind from ESE
Wind: ESE 2 mph , 4 km/h
Temperature: 75°F , 24°C
Dew Point: 72°F , 22°C
Humidity: 89%
Barometer: 1014 hPa
Clouds: Few Clouds
Visibility: 6 miles , 9 km
Cloud details: Few Clouds 2000 ft
2017/09/21 05:55 MUHA 210555Z 12002KT 9000 FEW020 24/22 Q1014
 
MUCM - Camaguey/Iganci, Cuba
Distance from station: NE 273mi, 439km
Updated: 21/09/2017 00:50
Clear
Clear
 Wind from ENE
Wind: ENE 6 mph , 9 km/h
Temperature: 75°F , 24°C
Dew Point: 72°F , 22°C
Humidity: 89%
Barometer: 1014 hPa
Clouds: Clear
Visibility: 6 miles , 9 km
2017/09/21 05:50 MUCM 210550Z 06005KT 9000 SKC 24/22 Q1014
MUMZ - Manzanillo, Cuba
Distance from station: ENE 287mi, 462km
Updated: 11/10/2016 09:50
NOT Current
Partly cloudy
Partly cloudy
 Wind from ENE
Wind: ENE 12 mph , 19 km/h
Temperature: 84°F , 29°C
Heat Index: 89°F , 32°C
Dew Point: 72°F , 22°C
Humidity: 66%
Barometer: 1014 hPa
Clouds: Partly cloudy
Visibility: 6 miles , 9 km
Cloud details: Partly cloudy 2000 ft
2016/10/11 14:50 MUMZ 111450Z 07010KT 9000 SCT020 29/22 Q1014
 
MUCC - Canagua, Cuba
Distance from station: NE 296mi, 476km
Updated: 08/09/2017 12:05
NOT Current

 Wind from N
Wind: N 17 mph , 28 km/h, Gust: 29 mph , 46 km/h
Temperature: 84°F , 29°C
Heat Index: 96°F , 36°C
Dew Point: 79°F , 26°C
Humidity: 84%
Barometer: 1004 hPa
2017/09/08 17:05 MUCC 081705Z AUTO 01015G25KT 29/26 Q1004
MKJP - Kingston/Norman Manley, Jamaica
Distance from station: ESE 315mi, 507km
Updated: 21/09/2017 01:00
Few Clouds
Few Clouds
 Wind from NNW
Wind: NNW 5 mph , 7 km/h
Temperature: 84°F , 29°C
Heat Index: 90°F , 32°C
Dew Point: 73°F , 23°C
Humidity: 70%
Barometer: 1010 hPa
Clouds: Few Clouds
Visibility: 6 miles , 10 km
Cloud details: Few Clouds 2400 ft
2017/09/21 06:00 MKJP 210600Z 33004KT 9999 FEW024 29/23 Q1010
 
MHPL - Puerto Lempira, Honduras
Distance from station: SSW 318mi, 513km
Updated: 20/09/2017 15:00
NOT Current
Partly cloudy
Partly cloudy
 Wind from N
Wind: N 10 mph , 17 km/h
Temperature: 88°F , 31°C
Heat Index: 100°F , 38°C
Dew Point: 77°F , 25°C
Humidity: 70%
Barometer: 1012 hPa
Clouds: Partly cloudy
Visibility: 6 miles , 10 km
Cloud details: Partly cloudy 2800 ft
Partly cloudy 9000 ft
2017/09/20 20:00 MHPL 202000Z 36009KT 9999 SCT028TCU SCT090 31/25 Q1012 TCU ALL HZ
MUHG - Holguin (civ/Mil, Cuba
Distance from station: ENE 345mi, 555km
Updated: 21/09/2017 00:50
Few Clouds
Few Clouds
 Wind from NNW
Wind: NNW 2 mph , 4 km/h
Temperature: 75°F , 24°C
Dew Point: 73°F , 23°C
Humidity: 94%
Barometer: 1012 hPa
Clouds: Few Clouds
Visibility: 5 miles , 8 km
Cloud details: Few Clouds 2000 ft
2017/09/21 05:50 MUHG 210550Z 33002KT 8000 FEW020 24/23 Q1012